Almirante Berria — EA4240 — position and weather

sailwx.info

Track history (hours):
 
Tides and Currents Weather Stations Pressure Air Temp Water Temp Dewpoint Dewpoint Depression Visibility Wind Speed Wind Dir Waves Ship Positions

Almirante Berria

Last reported at 2018-Jun-14 09:18 UTC. Time now 2018-Jun-19 04:28 UTC.
Position N 43°41' W 005°51'.

Length 26 m.

Type: Fishing. MMSI: 224096770.

Date/timePositionNaut miles runAvg speedWind from/ knotsBaromVisibWave heightAir tempDewpointWater temp
2018-Jun-14 09:18N 43°41' W 005°51'3 8.6
2018-Jun-14 08:58N 43°41' W 005°47'4 8.3
2018-Jun-14 08:29N 43°41' W 005°42'5 8.6
2018-Jun-14 07:57N 43°41' W 005°35'4 8.9
2018-Jun-14 07:28N 43°40' W 005°29'4 8.8
2018-Jun-14 07:00N 43°40' W 005°24'5 8.7
2018-Jun-14 06:29N 43°40' W 005°18'6 8.5
2018-Jun-14 05:44N 43°39' W 005°09'2 8.5
2018-Jun-14 05:30N 43°39' W 005°06'55 8.5
2018-Jun-13 23:00N 43°33' W 003°50'4 7.8
2018-Jun-13 22:30N 43°33' W 003°45'4 7.7
2018-Jun-13 22:00N 43°32' W 003°39'4 7.9
2018-Jun-13 21:30N 43°32' W 003°34'4 7.9
2018-Jun-13 21:00N 43°31' W 003°29'4 7.7
2018-Jun-13 20:29N 43°31' W 003°23'4 8.1
2018-Jun-13 20:00N 43°30' W 003°18'4 8.3
2018-Jun-13 19:30N 43°30' W 003°12'4 8.3
2018-Jun-13 19:00N 43°30' W 003°06'4 8.1
2018-Jun-13 18:30N 43°29' W 003°01'5 7.6
2018-Jun-13 17:53N 43°29' W 002°54'3 7.2
2018-Jun-13 17:30N 43°29' W 002°51'4 7.4
2018-Jun-13 17:00N 43°28' W 002°46'4 7.5
2018-Jun-13 16:30N 43°28' W 002°40'3 7.2
2018-Jun-13 16:00N 43°27' W 002°36'4 7.1
2018-Jun-13 15:29N 43°26' W 002°31'3 7.2
2018-Jun-13 15:00N 43°26' W 002°26'4 7.1
2018-Jun-13 14:30N 43°25' W 002°21'3 6.8
2018-Jun-13 14:00N 43°25' W 002°16'3 6.8
2018-Jun-13 13:30N 43°25' W 002°12'3 6.6
2018-Jun-13 13:00N 43°25' W 002°07'3 6.5
2018-Jun-13 12:30N 43°25' W 002°03'3 6.3
2018-Jun-13 12:00N 43°25' W 001°59'3 6.0
2018-Jun-13 11:29N 43°25' W 001°54'3 5.9
2018-Jun-13 11:00N 43°24' W 001°50'3 5.3
2018-Jun-13 10:30N 43°23' W 001°47'0 0.8
2018-Jun-13 10:00N 43°23' W 001°47'0 0.0
2018-Jun-13 09:30N 43°23' W 001°47'0 0.0
2018-Jun-13 09:00N 43°23' W 001°47'0 0.0
2018-Jun-13 08:30N 43°23' W 001°47'0 0.0
2018-Jun-13 08:00N 43°23' W 001°47'0 0.0
2018-Jun-13 07:30N 43°23' W 001°47'0 0.1
2018-Jun-13 07:00N 43°23' W 001°47'0 0.0
2018-Jun-11 16:11N 43°23' W 001°48'0 0.0
2018-Jun-11 16:00N 43°23' W 001°48'0 0.0
2018-Jun-11 15:30N 43°23' W 001°48'0 0.0
2018-Jun-11 15:00N 43°23' W 001°48'0 0.0
2018-Jun-11 14:30N 43°23' W 001°48'0 0.0
2018-Jun-11 14:00N 43°23' W 001°48'0 0.0
2018-Jun-11 13:30N 43°23' W 001°48'0 0.0
2018-Jun-11 13:00N 43°23' W 001°48'0 0.0
2018-Jun-11 12:30N 43°23' W 001°48'0 0.0
2018-Jun-11 12:00N 43°23' W 001°48'0 0.0
2018-Jun-11 11:30N 43°23' W 001°48'0 0.0
2018-Jun-11 11:00N 43°23' W 001°48'0 0.0
2018-Jun-11 10:30N 43°23' W 001°48'0 0.0
2018-Jun-11 10:00N 43°23' W 001°48'0 0.0
2018-Jun-11 09:30N 43°23' W 001°48'0 0.0
2018-Jun-11 09:00N 43°23' W 001°48'0 0.0
2018-Jun-11 08:30N 43°23' W 001°48'0 0.0
2018-Jun-11 08:00N 43°23' W 001°48'0 0.0
2018-Jun-11 07:30N 43°23' W 001°48'0 0.0
2018-Jun-11 07:00N 43°23' W 001°48'0 0.0
2018-Jun-11 06:30N 43°23' W 001°48'0 0.0
2018-Jun-11 06:00N 43°23' W 001°48'0 0.0
2018-Jun-09 07:32N 43°23' W 001°48'0 0.0
2018-Jun-09 07:30N 43°23' W 001°48'0 0.0
2018-Jun-08 12:53N 43°23' W 001°48'0 0.0
2018-Jun-08 12:31N 43°23' W 001°48'0 0.0
2018-Jun-08 12:01N 43°23' W 001°48'0 0.0
2018-Jun-08 11:30N 43°23' W 001°48'0 0.0
2018-Jun-08 11:00N 43°23' W 001°48'0 0.0
2018-Jun-08 10:30N 43°23' W 001°48'0 0.0
2018-Jun-08 10:01N 43°23' W 001°48'0 0.0
2018-Jun-08 09:29N 43°23' W 001°48'0 0.0
2018-Jun-08 09:01N 43°23' W 001°48'0 0.0
2018-Jun-08 08:31N 43°23' W 001°48'0 0.0
2018-Jun-08 08:00N 43°23' W 001°48'0 0.0
2018-Jun-08 07:30N 43°23' W 001°48'0 0.0
2018-Jun-08 07:00N 43°23' W 001°48'0 0.0
2018-Jun-08 06:30N 43°23' W 001°48'0 0.0
2018-Jun-07 16:15N 43°23' W 001°48'0 0.0
2018-Jun-07 16:00N 43°23' W 001°48'0 0.2
2018-Jun-07 15:30N 43°23' W 001°47'0 0.0
2018-Jun-07 15:00N 43°23' W 001°47'0 0.0
2018-Jun-07 14:30N 43°23' W 001°47'0 0.0
2018-Jun-07 14:00N 43°23' W 001°47'0 0.1
2018-Jun-07 13:30N 43°23' W 001°47'0 0.0
2018-Jun-07 13:00N 43°23' W 001°47'0 0.2
2018-Jun-07 12:27N 43°23' W 001°48'0 0.0
2018-Jun-07 12:00N 43°23' W 001°48'0 0.2
2018-Jun-07 11:30N 43°23' W 001°47'3 6.0
2018-Jun-07 11:00N 43°23' W 001°52'5 9.2
2018-Jun-07 10:30N 43°21' W 001°57'5 9.3
2018-Jun-07 10:00N 43°19' W 002°03'4 8.1
2018-Jun-07 09:30N 43°17' W 002°08'1 0.7
2018-Jun-07 08:44N 43°17' W 002°08'0 0.0
2018-Jun-07 08:24N 43°17' W 002°08'0 0.0
2018-Jun-07 07:59N 43°17' W 002°08'0 0.0
2018-Jun-07 07:28N 43°17' W 002°08'0 0.0
2018-Jun-06 14:44N 43°17' W 002°08'0 0.0
2018-Jun-06 14:29N 43°17' W 002°08'0 0.0
2018-Jun-06 13:59N 43°17' W 002°08'0 0.0
2018-Jun-06 13:28N 43°17' W 002°08'0 0.0
2018-Jun-05 11:17N 43°17' W 002°08'0 0.0
2018-Jun-05 11:00N 43°17' W 002°08'0 0.0
2018-Jun-05 10:30N 43°17' W 002°08'0 0.0
2018-Jun-05 09:03N 43°17' W 002°08'0 0.1
2018-Jun-05 08:52N 43°17' W 002°08'0 0.2
2018-Jun-05 08:30N 43°17' W 002°08'3 6.7
2018-Jun-05 08:00N 43°19' W 002°05'4 8.3
2018-Jun-05 07:30N 43°21' W 001°60'4 8.4
2018-Jun-05 07:00N 43°22' W 001°54'4 8.6
2018-Jun-05 06:30N 43°24' W 001°49'1 2.3
2018-Jun-05 06:00N 43°23' W 001°48'0 0.0
2018-Jun-04 12:04N 43°23' W 001°48'0 0.0
2018-Jun-04 12:00N 43°23' W 001°48'0 0.0
2018-Jun-04 11:30N 43°23' W 001°48'0 0.0
2018-Jun-04 11:01N 43°23' W 001°48'0 0.0
2018-Jun-04 10:31N 43°23' W 001°48'0 0.0
2018-Jun-04 10:00N 43°23' W 001°48'0 0.0
2018-Jun-04 09:31N 43°23' W 001°48'  
Track history (hours):
 
Tides and Currents Weather Stations Pressure Air Temp Water Temp Dewpoint Dewpoint Depression Visibility Wind Speed Wind Dir Waves Ship Positions

Almirante Berria

Last reported at 2018-Jun-14 09:18 UTC. Time now 2018-Jun-19 04:28 UTC.
Position N 43°41' W 005°51'.

Length 26 m.

Type: Fishing. MMSI: 224096770.

Date/timePositionNaut miles runAvg speedWind from/ knotsBaromVisibWave heightAir tempDewpointWater temp
2018-Jun-14 09:18N 43°41' W 005°51'3 8.6
2018-Jun-14 08:58N 43°41' W 005°47'4 8.3
2018-Jun-14 08:29N 43°41' W 005°42'5 8.6
2018-Jun-14 07:57N 43°41' W 005°35'4 8.9
2018-Jun-14 07:28N 43°40' W 005°29'4 8.8
2018-Jun-14 07:00N 43°40' W 005°24'5 8.7
2018-Jun-14 06:29N 43°40' W 005°18'6 8.5
2018-Jun-14 05:44N 43°39' W 005°09'2 8.5
2018-Jun-14 05:30N 43°39' W 005°06'55 8.5
2018-Jun-13 23:00N 43°33' W 003°50'4 7.8
2018-Jun-13 22:30N 43°33' W 003°45'4 7.7
2018-Jun-13 22:00N 43°32' W 003°39'4 7.9
2018-Jun-13 21:30N 43°32' W 003°34'4 7.9
2018-Jun-13 21:00N 43°31' W 003°29'4 7.7
2018-Jun-13 20:29N 43°31' W 003°23'4 8.1
2018-Jun-13 20:00N 43°30' W 003°18'4 8.3
2018-Jun-13 19:30N 43°30' W 003°12'4 8.3
2018-Jun-13 19:00N 43°30' W 003°06'4 8.1
2018-Jun-13 18:30N 43°29' W 003°01'5 7.6
2018-Jun-13 17:53N 43°29' W 002°54'3 7.2
2018-Jun-13 17:30N 43°29' W 002°51'4 7.4
2018-Jun-13 17:00N 43°28' W 002°46'4 7.5
2018-Jun-13 16:30N 43°28' W 002°40'3 7.2
2018-Jun-13 16:00N 43°27' W 002°36'4 7.1
2018-Jun-13 15:29N 43°26' W 002°31'3 7.2
2018-Jun-13 15:00N 43°26' W 002°26'4 7.1
2018-Jun-13 14:30N 43°25' W 002°21'3 6.8
2018-Jun-13 14:00N 43°25' W 002°16'3 6.8
2018-Jun-13 13:30N 43°25' W 002°12'3 6.6
2018-Jun-13 13:00N 43°25' W 002°07'3 6.5
2018-Jun-13 12:30N 43°25' W 002°03'3 6.3
2018-Jun-13 12:00N 43°25' W 001°59'3 6.0
2018-Jun-13 11:29N 43°25' W 001°54'3 5.9
2018-Jun-13 11:00N 43°24' W 001°50'3 5.3
2018-Jun-13 10:30N 43°23' W 001°47'0 0.8
2018-Jun-13 10:00N 43°23' W 001°47'0 0.0
2018-Jun-13 09:30N 43°23' W 001°47'0 0.0
2018-Jun-13 09:00N 43°23' W 001°47'0 0.0
2018-Jun-13 08:30N 43°23' W 001°47'0 0.0
2018-Jun-13 08:00N 43°23' W 001°47'0 0.0
2018-Jun-13 07:30N 43°23' W 001°47'0 0.1
2018-Jun-13 07:00N 43°23' W 001°47'0 0.0
2018-Jun-11 16:11N 43°23' W 001°48'0 0.0
2018-Jun-11 16:00N 43°23' W 001°48'0 0.0
2018-Jun-11 15:30N 43°23' W 001°48'0 0.0
2018-Jun-11 15:00N 43°23' W 001°48'0 0.0
2018-Jun-11 14:30N 43°23' W 001°48'0 0.0
2018-Jun-11 14:00N 43°23' W 001°48'0 0.0
2018-Jun-11 13:30N 43°23' W 001°48'0 0.0
2018-Jun-11 13:00N 43°23' W 001°48'0 0.0
2018-Jun-11 12:30N 43°23' W 001°48'0 0.0
2018-Jun-11 12:00N 43°23' W 001°48'0 0.0
2018-Jun-11 11:30N 43°23' W 001°48'0 0.0
2018-Jun-11 11:00N 43°23' W 001°48'0 0.0
2018-Jun-11 10:30N 43°23' W 001°48'0 0.0
2018-Jun-11 10:00N 43°23' W 001°48'0 0.0
2018-Jun-11 09:30N 43°23' W 001°48'0 0.0
2018-Jun-11 09:00N 43°23' W 001°48'0 0.0
2018-Jun-11 08:30N 43°23' W 001°48'0 0.0
2018-Jun-11 08:00N 43°23' W 001°48'0 0.0
2018-Jun-11 07:30N 43°23' W 001°48'0 0.0
2018-Jun-11 07:00N 43°23' W 001°48'0 0.0
2018-Jun-11 06:30N 43°23' W 001°48'0 0.0
2018-Jun-11 06:00N 43°23' W 001°48'0 0.0
2018-Jun-09 07:32N 43°23' W 001°48'0 0.0
2018-Jun-09 07:30N 43°23' W 001°48'0 0.0
2018-Jun-08 12:53N 43°23' W 001°48'0 0.0
2018-Jun-08 12:31N 43°23' W 001°48'0 0.0
2018-Jun-08 12:01N 43°23' W 001°48'0 0.0
2018-Jun-08 11:30N 43°23' W 001°48'0 0.0
2018-Jun-08 11:00N 43°23' W 001°48'0 0.0
2018-Jun-08 10:30N 43°23' W 001°48'0 0.0
2018-Jun-08 10:01N 43°23' W 001°48'0 0.0
2018-Jun-08 09:29N 43°23' W 001°48'0 0.0
2018-Jun-08 09:01N 43°23' W 001°48'0 0.0
2018-Jun-08 08:31N 43°23' W 001°48'0 0.0
2018-Jun-08 08:00N 43°23' W 001°48'0 0.0
2018-Jun-08 07:30N 43°23' W 001°48'0 0.0
2018-Jun-08 07:00N 43°23' W 001°48'0 0.0
2018-Jun-08 06:30N 43°23' W 001°48'0 0.0
2018-Jun-07 16:15N 43°23' W 001°48'0 0.0
2018-Jun-07 16:00N 43°23' W 001°48'0 0.2
2018-Jun-07 15:30N 43°23' W 001°47'0 0.0
2018-Jun-07 15:00N 43°23' W 001°47'0 0.0
2018-Jun-07 14:30N 43°23' W 001°47'0 0.0
2018-Jun-07 14:00N 43°23' W 001°47'0 0.1
2018-Jun-07 13:30N 43°23' W 001°47'0 0.0
2018-Jun-07 13:00N 43°23' W 001°47'0 0.2
2018-Jun-07 12:27N 43°23' W 001°48'0 0.0
2018-Jun-07 12:00N 43°23' W 001°48'0 0.2
2018-Jun-07 11:30N 43°23' W 001°47'3 6.0
2018-Jun-07 11:00N 43°23' W 001°52'5 9.2
2018-Jun-07 10:30N 43°21' W 001°57'5 9.3
2018-Jun-07 10:00N 43°19' W 002°03'4 8.1
2018-Jun-07 09:30N 43°17' W 002°08'1 0.7
2018-Jun-07 08:44N 43°17' W 002°08'0 0.0
2018-Jun-07 08:24N 43°17' W 002°08'0 0.0
2018-Jun-07 07:59N 43°17' W 002°08'0 0.0
2018-Jun-07 07:28N 43°17' W 002°08'0 0.0
2018-Jun-06 14:44N 43°17' W 002°08'0 0.0
2018-Jun-06 14:29N 43°17' W 002°08'0 0.0
2018-Jun-06 13:59N 43°17' W 002°08'0 0.0
2018-Jun-06 13:28N 43°17' W 002°08'0 0.0
2018-Jun-05 11:17N 43°17' W 002°08'0 0.0
2018-Jun-05 11:00N 43°17' W 002°08'0 0.0
2018-Jun-05 10:30N 43°17' W 002°08'0 0.0
2018-Jun-05 09:03N 43°17' W 002°08'0 0.1
2018-Jun-05 08:52N 43°17' W 002°08'0 0.2
2018-Jun-05 08:30N 43°17' W 002°08'3 6.7
2018-Jun-05 08:00N 43°19' W 002°05'4 8.3
2018-Jun-05 07:30N 43°21' W 001°60'4 8.4
2018-Jun-05 07:00N 43°22' W 001°54'4 8.6
2018-Jun-05 06:30N 43°24' W 001°49'1 2.3
2018-Jun-05 06:00N 43°23' W 001°48'0 0.0
2018-Jun-04 12:04N 43°23' W 001°48'0 0.0
2018-Jun-04 12:00N 43°23' W 001°48'0 0.0
2018-Jun-04 11:30N 43°23' W 001°48'0 0.0
2018-Jun-04 11:01N 43°23' W 001°48'0 0.0
2018-Jun-04 10:31N 43°23' W 001°48'0 0.0
2018-Jun-04 10:00N 43°23' W 001°48'0 0.0
2018-Jun-04 09:31N 43°23' W 001°48'  

Dump ship's entire track history